sensor_id;sensor_type;location;lat;lon;timestamp;P1;durP1;ratioP1;P2;durP2;ratioP2
15818;SDS011;8010;53.986;12.106;2023-12-20T00:01:28;0.90;;;0.70;;
15818;SDS011;8010;53.986;12.106;2023-12-20T00:03:54;3.37;;;0.80;;
15818;SDS011;8010;53.986;12.106;2023-12-20T00:06:19;1.60;;;1.00;;
15818;SDS011;8010;53.986;12.106;2023-12-20T00:08:45;0.90;;;0.60;;
15818;SDS011;8010;53.986;12.106;2023-12-20T00:11:10;4.27;;;0.70;;
15818;SDS011;8010;53.986;12.106;2023-12-20T00:13:36;1.83;;;0.90;;
15818;SDS011;8010;53.986;12.106;2023-12-20T00:16:02;4.47;;;1.20;;
15818;SDS011;8010;53.986;12.106;2023-12-20T00:18:27;2.03;;;0.63;;
15818;SDS011;8010;53.986;12.106;2023-12-20T00:20:53;2.97;;;0.80;;
15818;SDS011;8010;53.986;12.106;2023-12-20T00:23:18;2.43;;;0.80;;
15818;SDS011;8010;53.986;12.106;2023-12-20T00:25:44;2.10;;;0.60;;
15818;SDS011;8010;53.986;12.106;2023-12-20T00:28:10;4.17;;;1.47;;
15818;SDS011;8010;53.986;12.106;2023-12-20T00:30:35;5.67;;;1.20;;
15818;SDS011;8010;53.986;12.106;2023-12-20T00:33:01;5.63;;;1.20;;
15818;SDS011;8010;53.986;12.106;2023-12-20T00:35:27;1.30;;;0.80;;
15818;SDS011;8010;53.986;12.106;2023-12-20T00:37:53;4.73;;;1.03;;
15818;SDS011;8010;53.986;12.106;2023-12-20T00:40:18;1.57;;;0.67;;
15818;SDS011;8010;53.986;12.106;2023-12-20T00:42:44;6.40;;;1.00;;
15818;SDS011;8010;53.986;12.106;2023-12-20T00:45:11;5.50;;;1.20;;
15818;SDS011;8010;53.986;12.106;2023-12-20T00:47:37;3.60;;;0.80;;
15818;SDS011;8010;53.986;12.106;2023-12-20T00:50:03;3.93;;;0.87;;
15818;SDS011;8010;53.986;12.106;2023-12-20T00:52:28;2.80;;;0.70;;
15818;SDS011;8010;53.986;12.106;2023-12-20T00:54:54;5.30;;;0.80;;
15818;SDS011;8010;53.986;12.106;2023-12-20T00:57:19;2.43;;;0.83;;
15818;SDS011;8010;53.986;12.106;2023-12-20T00:59:45;2.10;;;0.70;;
15818;SDS011;8010;53.986;12.106;2023-12-20T01:02:10;3.20;;;0.90;;
15818;SDS011;8010;53.986;12.106;2023-12-20T01:04:36;2.60;;;0.97;;
15818;SDS011;8010;53.986;12.106;2023-12-20T01:07:01;4.00;;;0.70;;
15818;SDS011;8010;53.986;12.106;2023-12-20T01:09:27;3.43;;;0.77;;
15818;SDS011;8010;53.986;12.106;2023-12-20T01:11:53;1.77;;;0.57;;
15818;SDS011;8010;53.986;12.106;2023-12-20T01:14:18;1.77;;;0.60;;
15818;SDS011;8010;53.986;12.106;2023-12-20T01:16:44;2.73;;;0.97;;
15818;SDS011;8010;53.986;12.106;2023-12-20T01:19:10;3.93;;;0.80;;
15818;SDS011;8010;53.986;12.106;2023-12-20T01:21:35;1.17;;;0.63;;
15818;SDS011;8010;53.986;12.106;2023-12-20T01:24:01;2.40;;;0.87;;
15818;SDS011;8010;53.986;12.106;2023-12-20T01:26:26;3.97;;;1.07;;
15818;SDS011;8010;53.986;12.106;2023-12-20T01:28:52;2.97;;;0.97;;
15818;SDS011;8010;53.986;12.106;2023-12-20T01:31:18;5.90;;;1.30;;
15818;SDS011;8010;53.986;12.106;2023-12-20T01:33:44;3.67;;;1.47;;
15818;SDS011;8010;53.986;12.106;2023-12-20T01:36:09;3.80;;;1.43;;
15818;SDS011;8010;53.986;12.106;2023-12-20T01:38:36;3.27;;;1.43;;
15818;SDS011;8010;53.986;12.106;2023-12-20T01:41:01;2.43;;;1.53;;
15818;SDS011;8010;53.986;12.106;2023-12-20T01:43:27;3.50;;;1.53;;
15818;SDS011;8010;53.986;12.106;2023-12-20T01:45:52;6.77;;;1.83;;
15818;SDS011;8010;53.986;12.106;2023-12-20T01:48:20;3.27;;;1.20;;
15818;SDS011;8010;53.986;12.106;2023-12-20T01:50:46;4.90;;;1.53;;
15818;SDS011;8010;53.986;12.106;2023-12-20T01:53:12;4.13;;;1.27;;
15818;SDS011;8010;53.986;12.106;2023-12-20T01:55:39;5.60;;;1.23;;
15818;SDS011;8010;53.986;12.106;2023-12-20T01:58:05;5.20;;;1.37;;
15818;SDS011;8010;53.986;12.106;2023-12-20T02:00:32;4.60;;;1.00;;
15818;SDS011;8010;53.986;12.106;2023-12-20T02:03:00;4.40;;;1.10;;
15818;SDS011;8010;53.986;12.106;2023-12-20T02:05:27;3.00;;;1.03;;
15818;SDS011;8010;53.986;12.106;2023-12-20T02:07:53;4.13;;;1.10;;
15818;SDS011;8010;53.986;12.106;2023-12-20T02:10:19;1.83;;;1.10;;
15818;SDS011;8010;53.986;12.106;2023-12-20T02:12:44;2.07;;;1.43;;
15818;SDS011;8010;53.986;12.106;2023-12-20T02:15:10;2.60;;;0.80;;
15818;SDS011;8010;53.986;12.106;2023-12-20T02:17:37;5.00;;;1.33;;
15818;SDS011;8010;53.986;12.106;2023-12-20T02:20:04;8.20;;;1.60;;
15818;SDS011;8010;53.986;12.106;2023-12-20T02:22:30;8.17;;;1.50;;
15818;SDS011;8010;53.986;12.106;2023-12-20T02:24:56;8.37;;;1.40;;
15818;SDS011;8010;53.986;12.106;2023-12-20T02:27:22;6.57;;;1.27;;
15818;SDS011;8010;53.986;12.106;2023-12-20T02:29:48;4.60;;;1.53;;
15818;SDS011;8010;53.986;12.106;2023-12-20T02:32:15;10.00;;;1.87;;
15818;SDS011;8010;53.986;12.106;2023-12-20T02:34:42;12.70;;;1.90;;
15818;SDS011;8010;53.986;12.106;2023-12-20T02:37:08;6.23;;;1.30;;
15818;SDS011;8010;53.986;12.106;2023-12-20T02:39:33;9.10;;;1.80;;
15818;SDS011;8010;53.986;12.106;2023-12-20T02:41:59;9.73;;;1.73;;
15818;SDS011;8010;53.986;12.106;2023-12-20T02:44:24;9.83;;;2.30;;
15818;SDS011;8010;53.986;12.106;2023-12-20T02:46:50;11.33;;;1.67;;
15818;SDS011;8010;53.986;12.106;2023-12-20T02:49:15;8.50;;;1.50;;
15818;SDS011;8010;53.986;12.106;2023-12-20T02:51:41;5.07;;;1.33;;
15818;SDS011;8010;53.986;12.106;2023-12-20T02:54:06;5.83;;;1.60;;
15818;SDS011;8010;53.986;12.106;2023-12-20T02:56:32;7.57;;;2.17;;
15818;SDS011;8010;53.986;12.106;2023-12-20T02:58:58;4.90;;;1.27;;
15818;SDS011;8010;53.986;12.106;2023-12-20T03:01:23;3.87;;;1.07;;
15818;SDS011;8010;53.986;12.106;2023-12-20T03:03:49;5.77;;;1.30;;
15818;SDS011;8010;53.986;12.106;2023-12-20T03:06:18;9.00;;;1.93;;
15818;SDS011;8010;53.986;12.106;2023-12-20T03:08:44;9.70;;;1.70;;
15818;SDS011;8010;53.986;12.106;2023-12-20T03:11:10;10.33;;;2.03;;
15818;SDS011;8010;53.986;12.106;2023-12-20T03:13:35;2.40;;;0.90;;
15818;SDS011;8010;53.986;12.106;2023-12-20T03:16:01;6.83;;;1.00;;
15818;SDS011;8010;53.986;12.106;2023-12-20T03:18:38;5.47;;;1.30;;
15818;SDS011;8010;53.986;12.106;2023-12-20T03:21:04;6.03;;;1.20;;
15818;SDS011;8010;53.986;12.106;2023-12-20T03:23:30;4.90;;;0.87;;
15818;SDS011;8010;53.986;12.106;2023-12-20T03:25:57;6.00;;;1.10;;
15818;SDS011;8010;53.986;12.106;2023-12-20T03:28:23;9.47;;;1.33;;
15818;SDS011;8010;53.986;12.106;2023-12-20T03:30:48;13.37;;;1.40;;
15818;SDS011;8010;53.986;12.106;2023-12-20T03:33:14;8.93;;;1.30;;
15818;SDS011;8010;53.986;12.106;2023-12-20T03:35:40;15.50;;;1.97;;
15818;SDS011;8010;53.986;12.106;2023-12-20T03:38:05;9.80;;;2.87;;
15818;SDS011;8010;53.986;12.106;2023-12-20T03:40:31;10.23;;;2.10;;
15818;SDS011;8010;53.986;12.106;2023-12-20T03:42:56;15.90;;;1.47;;
15818;SDS011;8010;53.986;12.106;2023-12-20T03:45:21;4.83;;;1.00;;
15818;SDS011;8010;53.986;12.106;2023-12-20T03:47:47;8.90;;;1.43;;
15818;SDS011;8010;53.986;12.106;2023-12-20T03:50:13;5.60;;;1.13;;
15818;SDS011;8010;53.986;12.106;2023-12-20T03:52:39;7.07;;;1.03;;
15818;SDS011;8010;53.986;12.106;2023-12-20T03:55:04;7.67;;;1.13;;
15818;SDS011;8010;53.986;12.106;2023-12-20T03:57:30;6.63;;;1.20;;
15818;SDS011;8010;53.986;12.106;2023-12-20T03:59:56;2.53;;;0.80;;
15818;SDS011;8010;53.986;12.106;2023-12-20T04:02:21;9.13;;;1.67;;
15818;SDS011;8010;53.986;12.106;2023-12-20T04:04:47;7.53;;;1.60;;
15818;SDS011;8010;53.986;12.106;2023-12-20T04:07:12;6.63;;;1.93;;
15818;SDS011;8010;53.986;12.106;2023-12-20T04:09:38;8.07;;;1.53;;
15818;SDS011;8010;53.986;12.106;2023-12-20T04:12:03;6.73;;;1.43;;
15818;SDS011;8010;53.986;12.106;2023-12-20T04:14:30;3.40;;;1.40;;
15818;SDS011;8010;53.986;12.106;2023-12-20T04:16:56;7.37;;;1.63;;
15818;SDS011;8010;53.986;12.106;2023-12-20T04:19:21;12.40;;;2.33;;
15818;SDS011;8010;53.986;12.106;2023-12-20T04:21:47;16.17;;;2.87;;
15818;SDS011;8010;53.986;12.106;2023-12-20T04:24:12;8.00;;;1.63;;
15818;SDS011;8010;53.986;12.106;2023-12-20T04:26:38;10.27;;;1.40;;
15818;SDS011;8010;53.986;12.106;2023-12-20T04:29:03;7.60;;;2.03;;
15818;SDS011;8010;53.986;12.106;2023-12-20T04:31:29;9.83;;;1.80;;
15818;SDS011;8010;53.986;12.106;2023-12-20T04:33:54;7.60;;;1.93;;
15818;SDS011;8010;53.986;12.106;2023-12-20T04:36:20;8.87;;;1.80;;
15818;SDS011;8010;53.986;12.106;2023-12-20T04:38:45;10.30;;;2.13;;
15818;SDS011;8010;53.986;12.106;2023-12-20T04:41:11;10.23;;;2.30;;
15818;SDS011;8010;53.986;12.106;2023-12-20T04:43:40;9.33;;;1.70;;
15818;SDS011;8010;53.986;12.106;2023-12-20T04:46:06;14.33;;;2.23;;
15818;SDS011;8010;53.986;12.106;2023-12-20T04:48:31;8.67;;;2.03;;
15818;SDS011;8010;53.986;12.106;2023-12-20T04:50:57;5.37;;;2.40;;
15818;SDS011;8010;53.986;12.106;2023-12-20T04:53:22;7.10;;;2.50;;
15818;SDS011;8010;53.986;12.106;2023-12-20T04:55:48;12.57;;;2.40;;
15818;SDS011;8010;53.986;12.106;2023-12-20T04:58:13;8.17;;;2.20;;
15818;SDS011;8010;53.986;12.106;2023-12-20T05:00:39;10.83;;;2.10;;
15818;SDS011;8010;53.986;12.106;2023-12-20T05:03:05;7.73;;;2.17;;
15818;SDS011;8010;53.986;12.106;2023-12-20T05:05:30;7.73;;;2.97;;
15818;SDS011;8010;53.986;12.106;2023-12-20T05:07:56;6.30;;;1.97;;
15818;SDS011;8010;53.986;12.106;2023-12-20T05:10:22;7.17;;;2.70;;
15818;SDS011;8010;53.986;12.106;2023-12-20T05:12:47;4.63;;;2.40;;
15818;SDS011;8010;53.986;12.106;2023-12-20T05:15:13;6.17;;;1.50;;
15818;SDS011;8010;53.986;12.106;2023-12-20T05:17:38;8.43;;;2.10;;
15818;SDS011;8010;53.986;12.106;2023-12-20T05:20:04;6.80;;;2.40;;
15818;SDS011;8010;53.986;12.106;2023-12-20T05:22:30;8.80;;;2.20;;
15818;SDS011;8010;53.986;12.106;2023-12-20T05:24:56;7.57;;;2.40;;
15818;SDS011;8010;53.986;12.106;2023-12-20T05:27:21;15.23;;;3.23;;
15818;SDS011;8010;53.986;12.106;2023-12-20T05:29:47;6.53;;;1.73;;
15818;SDS011;8010;53.986;12.106;2023-12-20T05:32:12;7.53;;;1.80;;
15818;SDS011;8010;53.986;12.106;2023-12-20T05:34:38;10.37;;;1.80;;
15818;SDS011;8010;53.986;12.106;2023-12-20T05:37:03;6.03;;;1.80;;
15818;SDS011;8010;53.986;12.106;2023-12-20T05:39:29;5.13;;;1.90;;
15818;SDS011;8010;53.986;12.106;2023-12-20T05:41:55;5.80;;;1.77;;
15818;SDS011;8010;53.986;12.106;2023-12-20T05:44:21;6.00;;;1.73;;
15818;SDS011;8010;53.986;12.106;2023-12-20T05:46:47;4.37;;;1.67;;
15818;SDS011;8010;53.986;12.106;2023-12-20T05:49:12;4.50;;;2.40;;
15818;SDS011;8010;53.986;12.106;2023-12-20T05:51:38;11.27;;;2.50;;
15818;SDS011;8010;53.986;12.106;2023-12-20T05:54:04;5.03;;;2.60;;
15818;SDS011;8010;53.986;12.106;2023-12-20T05:56:30;5.67;;;1.83;;
15818;SDS011;8010;53.986;12.106;2023-12-20T05:58:55;9.20;;;2.80;;
15818;SDS011;8010;53.986;12.106;2023-12-20T06:01:21;6.30;;;2.27;;
15818;SDS011;8010;53.986;12.106;2023-12-20T06:03:46;7.90;;;1.80;;
15818;SDS011;8010;53.986;12.106;2023-12-20T06:06:12;10.47;;;2.00;;
15818;SDS011;8010;53.986;12.106;2023-12-20T06:08:40;7.03;;;2.13;;
15818;SDS011;8010;53.986;12.106;2023-12-20T06:11:06;7.53;;;2.27;;
15818;SDS011;8010;53.986;12.106;2023-12-20T06:13:31;8.23;;;2.10;;
15818;SDS011;8010;53.986;12.106;2023-12-20T06:15:57;7.17;;;2.47;;
15818;SDS011;8010;53.986;12.106;2023-12-20T06:18:22;4.63;;;2.30;;
15818;SDS011;8010;53.986;12.106;2023-12-20T06:20:49;8.73;;;2.60;;
15818;SDS011;8010;53.986;12.106;2023-12-20T06:23:14;4.33;;;1.57;;
15818;SDS011;8010;53.986;12.106;2023-12-20T06:25:40;8.40;;;1.97;;
15818;SDS011;8010;53.986;12.106;2023-12-20T06:28:06;8.00;;;2.70;;
15818;SDS011;8010;53.986;12.106;2023-12-20T06:30:31;7.87;;;2.37;;
15818;SDS011;8010;53.986;12.106;2023-12-20T06:32:57;12.93;;;3.40;;
15818;SDS011;8010;53.986;12.106;2023-12-20T06:35:23;8.67;;;2.93;;
15818;SDS011;8010;53.986;12.106;2023-12-20T06:37:49;10.17;;;2.67;;
15818;SDS011;8010;53.986;12.106;2023-12-20T06:40:14;8.70;;;2.60;;
15818;SDS011;8010;53.986;12.106;2023-12-20T06:42:41;8.70;;;3.47;;
15818;SDS011;8010;53.986;12.106;2023-12-20T06:45:06;8.93;;;2.80;;
15818;SDS011;8010;53.986;12.106;2023-12-20T06:47:32;10.10;;;3.10;;
15818;SDS011;8010;53.986;12.106;2023-12-20T06:49:57;11.93;;;3.67;;
15818;SDS011;8010;53.986;12.106;2023-12-20T06:52:23;6.23;;;3.07;;
15818;SDS011;8010;53.986;12.106;2023-12-20T06:54:49;9.33;;;2.77;;
15818;SDS011;8010;53.986;12.106;2023-12-20T06:57:14;8.30;;;2.83;;
15818;SDS011;8010;53.986;12.106;2023-12-20T06:59:42;8.93;;;2.97;;
15818;SDS011;8010;53.986;12.106;2023-12-20T07:02:09;5.33;;;2.57;;
15818;SDS011;8010;53.986;12.106;2023-12-20T07:04:38;14.90;;;2.90;;
15818;SDS011;8010;53.986;12.106;2023-12-20T07:07:05;8.07;;;3.63;;
15818;SDS011;8010;53.986;12.106;2023-12-20T07:09:32;7.57;;;2.43;;
15818;SDS011;8010;53.986;12.106;2023-12-20T07:11:57;7.93;;;2.63;;
15818;SDS011;8010;53.986;12.106;2023-12-20T07:14:23;9.93;;;2.97;;
15818;SDS011;8010;53.986;12.106;2023-12-20T07:16:48;10.80;;;2.60;;
15818;SDS011;8010;53.986;12.106;2023-12-20T07:19:14;9.30;;;2.93;;
15818;SDS011;8010;53.986;12.106;2023-12-20T07:21:39;10.87;;;2.83;;
15818;SDS011;8010;53.986;12.106;2023-12-20T07:24:05;8.90;;;2.37;;
15818;SDS011;8010;53.986;12.106;2023-12-20T07:26:31;7.10;;;2.93;;
15818;SDS011;8010;53.986;12.106;2023-12-20T07:28:56;7.17;;;2.93;;
15818;SDS011;8010;53.986;12.106;2023-12-20T07:31:23;9.63;;;2.90;;
15818;SDS011;8010;53.986;12.106;2023-12-20T07:33:49;5.83;;;2.40;;
15818;SDS011;8010;53.986;12.106;2023-12-20T07:36:14;4.37;;;1.70;;
15818;SDS011;8010;53.986;12.106;2023-12-20T07:38:40;3.47;;;1.83;;
15818;SDS011;8010;53.986;12.106;2023-12-20T07:41:08;4.90;;;1.67;;
15818;SDS011;8010;53.986;12.106;2023-12-20T07:43:34;4.67;;;1.83;;
15818;SDS011;8010;53.986;12.106;2023-12-20T07:46:06;6.77;;;2.37;;
15818;SDS011;8010;53.986;12.106;2023-12-20T07:48:34;3.83;;;1.67;;
15818;SDS011;8010;53.986;12.106;2023-12-20T07:51:00;8.03;;;2.10;;
15818;SDS011;8010;53.986;12.106;2023-12-20T07:53:26;6.50;;;2.33;;
15818;SDS011;8010;53.986;12.106;2023-12-20T07:55:52;6.53;;;1.83;;
15818;SDS011;8010;53.986;12.106;2023-12-20T07:58:18;7.13;;;2.20;;
15818;SDS011;8010;53.986;12.106;2023-12-20T08:00:43;8.07;;;2.80;;
15818;SDS011;8010;53.986;12.106;2023-12-20T08:03:09;9.30;;;2.93;;
15818;SDS011;8010;53.986;12.106;2023-12-20T08:05:35;6.93;;;1.60;;
15818;SDS011;8010;53.986;12.106;2023-12-20T08:08:00;4.37;;;1.90;;
15818;SDS011;8010;53.986;12.106;2023-12-20T08:10:26;7.03;;;1.50;;
15818;SDS011;8010;53.986;12.106;2023-12-20T08:12:54;5.80;;;1.80;;
15818;SDS011;8010;53.986;12.106;2023-12-20T08:15:20;6.17;;;1.43;;
15818;SDS011;8010;53.986;12.106;2023-12-20T08:17:45;8.83;;;2.07;;
15818;SDS011;8010;53.986;12.106;2023-12-20T08:20:11;8.73;;;2.10;;
15818;SDS011;8010;53.986;12.106;2023-12-20T08:22:36;6.03;;;2.00;;
15818;SDS011;8010;53.986;12.106;2023-12-20T08:25:02;4.37;;;2.03;;
15818;SDS011;8010;53.986;12.106;2023-12-20T08:27:28;8.87;;;1.93;;
15818;SDS011;8010;53.986;12.106;2023-12-20T08:29:53;2.37;;;0.83;;
15818;SDS011;8010;53.986;12.106;2023-12-20T08:32:19;5.03;;;1.37;;
15818;SDS011;8010;53.986;12.106;2023-12-20T08:34:44;5.03;;;1.73;;
15818;SDS011;8010;53.986;12.106;2023-12-20T08:37:10;4.90;;;1.50;;
15818;SDS011;8010;53.986;12.106;2023-12-20T08:39:35;7.13;;;1.70;;
15818;SDS011;8010;53.986;12.106;2023-12-20T08:42:01;5.77;;;1.43;;
15818;SDS011;8010;53.986;12.106;2023-12-20T08:44:27;7.60;;;1.50;;
15818;SDS011;8010;53.986;12.106;2023-12-20T08:46:52;3.90;;;1.00;;
15818;SDS011;8010;53.986;12.106;2023-12-20T08:49:18;3.47;;;0.87;;
15818;SDS011;8010;53.986;12.106;2023-12-20T08:51:43;4.07;;;0.87;;
15818;SDS011;8010;53.986;12.106;2023-12-20T08:54:09;2.47;;;1.10;;
15818;SDS011;8010;53.986;12.106;2023-12-20T08:56:35;5.70;;;1.20;;
15818;SDS011;8010;53.986;12.106;2023-12-20T08:59:00;6.27;;;0.87;;
15818;SDS011;8010;53.986;12.106;2023-12-20T09:01:26;3.47;;;1.40;;
15818;SDS011;8010;53.986;12.106;2023-12-20T09:03:51;4.20;;;0.70;;
15818;SDS011;8010;53.986;12.106;2023-12-20T09:06:17;4.83;;;1.07;;
15818;SDS011;8010;53.986;12.106;2023-12-20T09:08:42;4.60;;;0.80;;
15818;SDS011;8010;53.986;12.106;2023-12-20T09:11:08;1.57;;;0.70;;
15818;SDS011;8010;53.986;12.106;2023-12-20T09:13:33;2.67;;;0.90;;
15818;SDS011;8010;53.986;12.106;2023-12-20T09:15:59;4.50;;;0.90;;
15818;SDS011;8010;53.986;12.106;2023-12-20T09:18:25;4.93;;;0.80;;
15818;SDS011;8010;53.986;12.106;2023-12-20T09:20:50;9.03;;;1.13;;
15818;SDS011;8010;53.986;12.106;2023-12-20T09:23:16;2.87;;;1.10;;
15818;SDS011;8010;53.986;12.106;2023-12-20T09:25:43;6.53;;;1.20;;
15818;SDS011;8010;53.986;12.106;2023-12-20T09:28:09;2.67;;;1.00;;
15818;SDS011;8010;53.986;12.106;2023-12-20T09:30:34;6.63;;;1.77;;
15818;SDS011;8010;53.986;12.106;2023-12-20T09:33:02;5.30;;;1.30;;
15818;SDS011;8010;53.986;12.106;2023-12-20T09:35:28;5.77;;;0.90;;
15818;SDS011;8010;53.986;12.106;2023-12-20T09:37:53;11.13;;;1.77;;
15818;SDS011;8010;53.986;12.106;2023-12-20T09:40:19;2.67;;;1.10;;
15818;SDS011;8010;53.986;12.106;2023-12-20T09:42:54;4.70;;;1.63;;
15818;SDS011;8010;53.986;12.106;2023-12-20T09:45:22;5.80;;;1.67;;
15818;SDS011;8010;53.986;12.106;2023-12-20T09:47:52;2.00;;;1.10;;
15818;SDS011;8010;53.986;12.106;2023-12-20T09:50:19;6.67;;;1.90;;
15818;SDS011;8010;53.986;12.106;2023-12-20T09:52:50;8.43;;;1.80;;
15818;SDS011;8010;53.986;12.106;2023-12-20T09:55:17;8.77;;;2.43;;
15818;SDS011;8010;53.986;12.106;2023-12-20T09:57:44;6.87;;;1.67;;
15818;SDS011;8010;53.986;12.106;2023-12-20T10:00:10;4.47;;;1.70;;
15818;SDS011;8010;53.986;12.106;2023-12-20T10:02:37;3.43;;;1.53;;
15818;SDS011;8010;53.986;12.106;2023-12-20T10:05:06;3.30;;;1.40;;
15818;SDS011;8010;53.986;12.106;2023-12-20T10:07:34;8.47;;;1.37;;
15818;SDS011;8010;53.986;12.106;2023-12-20T10:10:00;4.23;;;1.63;;
15818;SDS011;8010;53.986;12.106;2023-12-20T10:12:27;7.50;;;2.00;;
15818;SDS011;8010;53.986;12.106;2023-12-20T10:14:52;9.20;;;2.07;;
15818;SDS011;8010;53.986;12.106;2023-12-20T10:17:18;4.43;;;1.83;;
15818;SDS011;8010;53.986;12.106;2023-12-20T10:19:43;7.70;;;1.90;;
15818;SDS011;8010;53.986;12.106;2023-12-20T10:22:09;6.03;;;1.33;;
15818;SDS011;8010;53.986;12.106;2023-12-20T10:24:35;5.57;;;2.20;;
15818;SDS011;8010;53.986;12.106;2023-12-20T10:27:04;7.40;;;2.67;;
15818;SDS011;8010;53.986;12.106;2023-12-20T10:29:32;7.87;;;2.07;;
15818;SDS011;8010;53.986;12.106;2023-12-20T10:31:58;4.90;;;1.50;;
15818;SDS011;8010;53.986;12.106;2023-12-20T10:34:24;1.77;;;1.53;;
15818;SDS011;8010;53.986;12.106;2023-12-20T10:36:49;8.53;;;1.67;;
15818;SDS011;8010;53.986;12.106;2023-12-20T10:39:16;6.83;;;2.03;;
15818;SDS011;8010;53.986;12.106;2023-12-20T10:41:45;5.50;;;2.33;;
15818;SDS011;8010;53.986;12.106;2023-12-20T10:44:11;9.17;;;2.00;;
15818;SDS011;8010;53.986;12.106;2023-12-20T10:46:38;6.07;;;2.00;;
15818;SDS011;8010;53.986;12.106;2023-12-20T10:49:06;10.47;;;1.83;;
15818;SDS011;8010;53.986;12.106;2023-12-20T10:51:33;3.77;;;1.20;;
15818;SDS011;8010;53.986;12.106;2023-12-20T10:53:59;2.83;;;0.80;;
15818;SDS011;8010;53.986;12.106;2023-12-20T10:56:25;5.30;;;1.40;;
15818;SDS011;8010;53.986;12.106;2023-12-20T10:58:57;6.40;;;1.20;;
15818;SDS011;8010;53.986;12.106;2023-12-20T11:01:26;1.17;;;0.80;;
15818;SDS011;8010;53.986;12.106;2023-12-20T11:03:54;2.80;;;0.70;;
15818;SDS011;8010;53.986;12.106;2023-12-20T11:08:58;3.83;;;0.53;;
15818;SDS011;8010;53.986;12.106;2023-12-20T11:11:52;1.00;;;0.57;;
15818;SDS011;8010;53.986;12.106;2023-12-20T11:14:33;2.87;;;0.60;;
15818;SDS011;8010;53.986;12.106;2023-12-20T11:17:08;0.70;;;0.50;;
15818;SDS011;8010;53.986;12.106;2023-12-20T11:19:36;4.13;;;0.53;;
15818;SDS011;8010;53.986;12.106;2023-12-20T11:22:03;2.13;;;0.53;;
15818;SDS011;8010;53.986;12.106;2023-12-20T11:24:30;3.17;;;0.50;;
15818;SDS011;8010;53.986;12.106;2023-12-20T11:26:57;0.40;;;0.30;;
15818;SDS011;8010;53.986;12.106;2023-12-20T11:29:34;1.83;;;0.40;;
15818;SDS011;8010;53.986;12.106;2023-12-20T11:32:01;1.17;;;0.30;;
15818;SDS011;8010;53.986;12.106;2023-12-20T11:34:47;0.70;;;0.37;;
15818;SDS011;8010;53.986;12.106;2023-12-20T11:37:12;0.47;;;0.40;;
15818;SDS011;8010;53.986;12.106;2023-12-20T11:39:38;0.47;;;0.20;;
15818;SDS011;8010;53.986;12.106;2023-12-20T11:42:04;0.97;;;0.30;;
15818;SDS011;8010;53.986;12.106;2023-12-20T11:44:31;1.47;;;0.30;;
15818;SDS011;8010;53.986;12.106;2023-12-20T11:46:57;1.50;;;0.37;;
15818;SDS011;8010;53.986;12.106;2023-12-20T11:49:23;2.73;;;0.47;;
15818;SDS011;8010;53.986;12.106;2023-12-20T11:51:50;4.77;;;0.67;;
15818;SDS011;8010;53.986;12.106;2023-12-20T11:54:15;3.37;;;0.40;;
15818;SDS011;8010;53.986;12.106;2023-12-20T11:56:41;2.90;;;0.40;;
15818;SDS011;8010;53.986;12.106;2023-12-20T11:59:08;1.63;;;0.50;;
15818;SDS011;8010;53.986;12.106;2023-12-20T12:01:34;3.87;;;0.57;;
15818;SDS011;8010;53.986;12.106;2023-12-20T12:04:06;0.90;;;0.30;;
15818;SDS011;8010;53.986;12.106;2023-12-20T12:06:32;1.10;;;0.50;;
15818;SDS011;8010;53.986;12.106;2023-12-20T12:08:57;3.53;;;0.73;;
15818;SDS011;8010;53.986;12.106;2023-12-20T12:11:23;3.90;;;0.53;;
15818;SDS011;8010;53.986;12.106;2023-12-20T12:13:49;2.97;;;0.90;;
15818;SDS011;8010;53.986;12.106;2023-12-20T12:16:19;4.00;;;0.57;;
15818;SDS011;8010;53.986;12.106;2023-12-20T12:18:45;3.83;;;0.90;;
15818;SDS011;8010;53.986;12.106;2023-12-20T12:21:11;4.30;;;0.80;;
15818;SDS011;8010;53.986;12.106;2023-12-20T12:23:44;3.23;;;0.50;;
15818;SDS011;8010;53.986;12.106;2023-12-20T12:26:09;1.37;;;0.47;;
15818;SDS011;8010;53.986;12.106;2023-12-20T12:28:35;3.93;;;0.60;;
15818;SDS011;8010;53.986;12.106;2023-12-20T12:31:01;3.33;;;0.80;;
15818;SDS011;8010;53.986;12.106;2023-12-20T12:33:26;6.80;;;0.80;;
15818;SDS011;8010;53.986;12.106;2023-12-20T12:35:52;2.00;;;0.40;;
15818;SDS011;8010;53.986;12.106;2023-12-20T12:38:21;4.67;;;0.77;;
15818;SDS011;8010;53.986;12.106;2023-12-20T12:40:47;3.90;;;0.70;;
15818;SDS011;8010;53.986;12.106;2023-12-20T12:43:12;2.10;;;0.50;;
15818;SDS011;8010;53.986;12.106;2023-12-20T12:45:38;4.00;;;0.67;;
15818;SDS011;8010;53.986;12.106;2023-12-20T12:48:04;2.73;;;0.80;;
15818;SDS011;8010;53.986;12.106;2023-12-20T12:50:30;3.40;;;0.70;;
15818;SDS011;8010;53.986;12.106;2023-12-20T12:52:56;2.10;;;0.70;;
15818;SDS011;8010;53.986;12.106;2023-12-20T12:55:22;3.07;;;0.70;;
15818;SDS011;8010;53.986;12.106;2023-12-20T12:57:47;1.30;;;0.43;;
15818;SDS011;8010;53.986;12.106;2023-12-20T13:00:13;3.73;;;0.60;;
15818;SDS011;8010;53.986;12.106;2023-12-20T13:02:39;2.93;;;0.70;;
15818;SDS011;8010;53.986;12.106;2023-12-20T13:05:07;3.57;;;0.90;;
15818;SDS011;8010;53.986;12.106;2023-12-20T13:07:33;3.97;;;0.90;;
15818;SDS011;8010;53.986;12.106;2023-12-20T13:09:59;4.30;;;0.60;;
15818;SDS011;8010;53.986;12.106;2023-12-20T13:12:25;6.57;;;0.97;;
15818;SDS011;8010;53.986;12.106;2023-12-20T13:14:51;4.87;;;0.57;;
15818;SDS011;8010;53.986;12.106;2023-12-20T13:17:16;1.50;;;0.73;;
15818;SDS011;8010;53.986;12.106;2023-12-20T13:19:42;5.10;;;0.70;;
15818;SDS011;8010;53.986;12.106;2023-12-20T13:22:08;5.33;;;0.73;;
15818;SDS011;8010;53.986;12.106;2023-12-20T13:24:33;5.03;;;0.50;;
15818;SDS011;8010;53.986;12.106;2023-12-20T13:26:59;3.80;;;0.80;;
15818;SDS011;8010;53.986;12.106;2023-12-20T13:29:25;1.73;;;0.40;;
15818;SDS011;8010;53.986;12.106;2023-12-20T13:31:52;4.27;;;0.53;;
15818;SDS011;8010;53.986;12.106;2023-12-20T13:34:18;7.90;;;0.80;;
15818;SDS011;8010;53.986;12.106;2023-12-20T13:36:44;2.83;;;0.70;;
15818;SDS011;8010;53.986;12.106;2023-12-20T13:39:14;2.37;;;0.50;;
15818;SDS011;8010;53.986;12.106;2023-12-20T13:41:40;2.13;;;0.60;;
15818;SDS011;8010;53.986;12.106;2023-12-20T13:44:06;1.67;;;1.30;;
15818;SDS011;8010;53.986;12.106;2023-12-20T13:46:31;7.80;;;0.87;;
15818;SDS011;8010;53.986;12.106;2023-12-20T13:48:57;2.97;;;0.60;;
15818;SDS011;8010;53.986;12.106;2023-12-20T13:51:22;4.70;;;0.70;;
15818;SDS011;8010;53.986;12.106;2023-12-20T13:53:48;3.83;;;0.57;;
15818;SDS011;8010;53.986;12.106;2023-12-20T13:56:17;4.63;;;1.07;;
15818;SDS011;8010;53.986;12.106;2023-12-20T13:58:43;4.63;;;1.00;;
15818;SDS011;8010;53.986;12.106;2023-12-20T14:03:35;9.43;;;1.30;;
15818;SDS011;8010;53.986;12.106;2023-12-20T14:06:01;7.77;;;1.47;;
15818;SDS011;8010;53.986;12.106;2023-12-20T14:08:27;5.87;;;1.40;;
15818;SDS011;8010;53.986;12.106;2023-12-20T14:10:52;6.77;;;0.83;;
15818;SDS011;8010;53.986;12.106;2023-12-20T14:13:18;3.73;;;0.83;;
15818;SDS011;8010;53.986;12.106;2023-12-20T14:15:44;2.37;;;0.83;;
15818;SDS011;8010;53.986;12.106;2023-12-20T14:18:09;6.60;;;1.03;;
15818;SDS011;8010;53.986;12.106;2023-12-20T14:20:37;2.77;;;0.67;;
15818;SDS011;8010;53.986;12.106;2023-12-20T14:23:04;3.20;;;0.90;;
15818;SDS011;8010;53.986;12.106;2023-12-20T14:25:30;7.20;;;1.00;;
15818;SDS011;8010;53.986;12.106;2023-12-20T14:27:56;3.00;;;0.97;;
15818;SDS011;8010;53.986;12.106;2023-12-20T14:30:22;4.70;;;1.30;;
15818;SDS011;8010;53.986;12.106;2023-12-20T14:32:48;7.63;;;1.27;;
15818;SDS011;8010;53.986;12.106;2023-12-20T14:35:14;3.87;;;1.37;;
15818;SDS011;8010;53.986;12.106;2023-12-20T14:37:39;11.33;;;1.53;;
15818;SDS011;8010;53.986;12.106;2023-12-20T14:40:06;4.33;;;1.43;;
15818;SDS011;8010;53.986;12.106;2023-12-20T14:42:35;4.10;;;1.50;;
15818;SDS011;8010;53.986;12.106;2023-12-20T14:45:00;4.53;;;1.40;;